sensor_id;sensor_type;location;lat;lon;timestamp;P1;durP1;ratioP1;P2;durP2;ratioP2
63653;SDS011;49809;47.418;19.080;2022-12-18T00:00:30;9.63;;;3.72;;
63653;SDS011;49809;47.418;19.080;2022-12-18T00:04:07;6.03;;;3.08;;
63653;SDS011;49809;47.418;19.080;2022-12-18T00:08:09;5.07;;;2.65;;
63653;SDS011;49809;47.418;19.080;2022-12-18T00:11:20;6.62;;;2.90;;
63653;SDS011;49809;47.418;19.080;2022-12-18T00:15:03;6.55;;;3.72;;
63653;SDS011;49809;47.418;19.080;2022-12-18T00:18:38;5.20;;;2.53;;
63653;SDS011;49809;47.418;19.080;2022-12-18T00:22:18;12.10;;;4.32;;
63653;SDS011;49809;47.418;19.080;2022-12-18T00:25:59;7.03;;;3.42;;
63653;SDS011;49809;47.418;19.080;2022-12-18T00:29:40;4.78;;;3.37;;
63653;SDS011;49809;47.418;19.080;2022-12-18T00:33:14;8.88;;;4.07;;
63653;SDS011;49809;47.418;19.080;2022-12-18T00:36:50;6.35;;;2.95;;
63653;SDS011;49809;47.418;19.080;2022-12-18T00:40:10;6.07;;;3.67;;
63653;SDS011;49809;47.418;19.080;2022-12-18T00:43:34;6.65;;;3.42;;
63653;SDS011;49809;47.418;19.080;2022-12-18T00:47:03;6.07;;;3.58;;
63653;SDS011;49809;47.418;19.080;2022-12-18T00:50:23;4.05;;;2.78;;
63653;SDS011;49809;47.418;19.080;2022-12-18T00:54:19;3.12;;;2.58;;
63653;SDS011;49809;47.418;19.080;2022-12-18T00:58:00;3.92;;;2.33;;
63653;SDS011;49809;47.418;19.080;2022-12-18T01:01:19;10.63;;;4.85;;
63653;SDS011;49809;47.418;19.080;2022-12-18T01:08:20;7.95;;;4.97;;
63653;SDS011;49809;47.418;19.080;2022-12-18T01:11:48;13.70;;;3.47;;
63653;SDS011;49809;47.418;19.080;2022-12-18T01:15:28;8.32;;;4.90;;
63653;SDS011;49809;47.418;19.080;2022-12-18T01:19:09;4.18;;;3.33;;
63653;SDS011;49809;47.418;19.080;2022-12-18T01:22:40;11.20;;;4.35;;
63653;SDS011;49809;47.418;19.080;2022-12-18T01:26:47;10.38;;;4.70;;
63653;SDS011;49809;47.418;19.080;2022-12-18T01:30:15;5.90;;;3.78;;
63653;SDS011;49809;47.418;19.080;2022-12-18T01:33:50;4.12;;;2.62;;
63653;SDS011;49809;47.418;19.080;2022-12-18T01:36:56;9.55;;;3.70;;
63653;SDS011;49809;47.418;19.080;2022-12-18T01:39:59;9.57;;;4.03;;
63653;SDS011;49809;47.418;19.080;2022-12-18T01:47:02;13.95;;;4.28;;
63653;SDS011;49809;47.418;19.080;2022-12-18T01:50:42;11.02;;;3.97;;
63653;SDS011;49809;47.418;19.080;2022-12-18T01:54:12;12.57;;;3.53;;
63653;SDS011;49809;47.418;19.080;2022-12-18T01:57:31;5.30;;;4.15;;
63653;SDS011;49809;47.418;19.080;2022-12-18T02:01:14;9.65;;;3.45;;
63653;SDS011;49809;47.418;19.080;2022-12-18T02:05:09;12.13;;;3.37;;
63653;SDS011;49809;47.418;19.080;2022-12-18T02:12:52;5.78;;;2.83;;
63653;SDS011;49809;47.418;19.080;2022-12-18T02:17:01;2.75;;;2.45;;
63653;SDS011;49809;47.418;19.080;2022-12-18T02:20:32;4.35;;;3.28;;
63653;SDS011;49809;47.418;19.080;2022-12-18T02:28:23;8.50;;;4.62;;
63653;SDS011;49809;47.418;19.080;2022-12-18T02:31:45;6.03;;;3.50;;
63653;SDS011;49809;47.418;19.080;2022-12-18T02:35:37;10.25;;;4.57;;
63653;SDS011;49809;47.418;19.080;2022-12-18T02:39:09;6.72;;;3.95;;
63653;SDS011;49809;47.418;19.080;2022-12-18T02:42:42;2.80;;;2.60;;
63653;SDS011;49809;47.418;19.080;2022-12-18T02:46:24;4.12;;;2.95;;
63653;SDS011;49809;47.418;19.080;2022-12-18T02:57:33;4.18;;;3.22;;
63653;SDS011;49809;47.418;19.080;2022-12-18T03:05:04;14.13;;;4.75;;
63653;SDS011;49809;47.418;19.080;2022-12-18T03:08:47;10.23;;;3.45;;
63653;SDS011;49809;47.418;19.080;2022-12-18T03:12:30;7.15;;;3.53;;
63653;SDS011;49809;47.418;19.080;2022-12-18T03:15:57;5.05;;;3.17;;
63653;SDS011;49809;47.418;19.080;2022-12-18T03:19:21;11.80;;;5.45;;
63653;SDS011;49809;47.418;19.080;2022-12-18T03:22:47;3.05;;;2.83;;
63653;SDS011;49809;47.418;19.080;2022-12-18T03:26:31;3.65;;;1.77;;
63653;SDS011;49809;47.418;19.080;2022-12-18T03:30:10;10.60;;;3.22;;
63653;SDS011;49809;47.418;19.080;2022-12-18T03:33:53;4.85;;;3.03;;
63653;SDS011;49809;47.418;19.080;2022-12-18T03:37:52;8.13;;;2.35;;
63653;SDS011;49809;47.418;19.080;2022-12-18T03:44:53;11.43;;;3.15;;
63653;SDS011;49809;47.418;19.080;2022-12-18T03:48:42;7.05;;;2.10;;
63653;SDS011;49809;47.418;19.080;2022-12-18T03:52:31;3.40;;;3.10;;
63653;SDS011;49809;47.418;19.080;2022-12-18T03:55:40;6.15;;;3.70;;
63653;SDS011;49809;47.418;19.080;2022-12-18T03:59:22;5.32;;;3.80;;
63653;SDS011;49809;47.418;19.080;2022-12-18T04:03:08;6.75;;;4.55;;
63653;SDS011;49809;47.418;19.080;2022-12-18T04:06:51;7.60;;;3.75;;
63653;SDS011;49809;47.418;19.080;2022-12-18T04:09:59;3.80;;;2.60;;
63653;SDS011;49809;47.418;19.080;2022-12-18T04:13:30;7.07;;;3.17;;
63653;SDS011;49809;47.418;19.080;2022-12-18T04:17:17;8.48;;;4.85;;
63653;SDS011;49809;47.418;19.080;2022-12-18T04:20:51;6.03;;;3.22;;
63653;SDS011;49809;47.418;19.080;2022-12-18T04:24:21;6.65;;;3.35;;
63653;SDS011;49809;47.418;19.080;2022-12-18T04:27:54;5.87;;;3.58;;
63653;SDS011;49809;47.418;19.080;2022-12-18T04:31:41;6.40;;;3.22;;
63653;SDS011;49809;47.418;19.080;2022-12-18T04:34:50;8.38;;;3.12;;
63653;SDS011;49809;47.418;19.080;2022-12-18T04:38:26;7.57;;;4.03;;
63653;SDS011;49809;47.418;19.080;2022-12-18T04:41:58;8.88;;;4.35;;
63653;SDS011;49809;47.418;19.080;2022-12-18T04:45:22;4.65;;;3.50;;
63653;SDS011;49809;47.418;19.080;2022-12-18T04:49:00;6.12;;;4.57;;
63653;SDS011;49809;47.418;19.080;2022-12-18T04:52:31;12.88;;;2.75;;
63653;SDS011;49809;47.418;19.080;2022-12-18T04:55:34;4.18;;;2.80;;
63653;SDS011;49809;47.418;19.080;2022-12-18T04:59:03;8.27;;;2.58;;
63653;SDS011;49809;47.418;19.080;2022-12-18T05:02:38;4.75;;;3.47;;
63653;SDS011;49809;47.418;19.080;2022-12-18T05:05:45;4.70;;;2.22;;
63653;SDS011;49809;47.418;19.080;2022-12-18T05:09:02;4.53;;;2.47;;
63653;SDS011;49809;47.418;19.080;2022-12-18T05:12:36;2.37;;;1.50;;
63653;SDS011;49809;47.418;19.080;2022-12-18T05:16:41;8.18;;;3.78;;
63653;SDS011;49809;47.418;19.080;2022-12-18T05:20:37;8.80;;;3.00;;
63653;SDS011;49809;47.418;19.080;2022-12-18T05:23:55;2.97;;;1.87;;
63653;SDS011;49809;47.418;19.080;2022-12-18T05:27:27;4.85;;;2.65;;
63653;SDS011;49809;47.418;19.080;2022-12-18T05:31:02;5.28;;;3.97;;
63653;SDS011;49809;47.418;19.080;2022-12-18T05:34:38;10.40;;;3.60;;
63653;SDS011;49809;47.418;19.080;2022-12-18T05:38:12;7.75;;;3.37;;
63653;SDS011;49809;47.418;19.080;2022-12-18T05:41:45;3.20;;;2.72;;
63653;SDS011;49809;47.418;19.080;2022-12-18T05:45:03;5.30;;;3.80;;
63653;SDS011;49809;47.418;19.080;2022-12-18T05:48:40;14.70;;;5.07;;
63653;SDS011;49809;47.418;19.080;2022-12-18T05:52:19;3.30;;;3.00;;
63653;SDS011;49809;47.418;19.080;2022-12-18T05:55:47;10.07;;;5.50;;
63653;SDS011;49809;47.418;19.080;2022-12-18T05:59:06;5.55;;;3.62;;
63653;SDS011;49809;47.418;19.080;2022-12-18T06:02:26;6.55;;;4.25;;
63653;SDS011;49809;47.418;19.080;2022-12-18T06:06:00;5.12;;;3.90;;
63653;SDS011;49809;47.418;19.080;2022-12-18T06:09:41;8.13;;;4.03;;
63653;SDS011;49809;47.418;19.080;2022-12-18T06:13:10;8.40;;;5.15;;
63653;SDS011;49809;47.418;19.080;2022-12-18T06:16:32;4.15;;;2.45;;
63653;SDS011;49809;47.418;19.080;2022-12-18T06:20:06;4.55;;;2.28;;
63653;SDS011;49809;47.418;19.080;2022-12-18T06:23:35;22.73;;;4.47;;
63653;SDS011;49809;47.418;19.080;2022-12-18T06:26:40;7.28;;;2.60;;
63653;SDS011;49809;47.418;19.080;2022-12-18T06:30:09;6.32;;;4.87;;
63653;SDS011;49809;47.418;19.080;2022-12-18T06:33:53;3.70;;;3.22;;
63653;SDS011;49809;47.418;19.080;2022-12-18T06:37:11;7.07;;;5.30;;
63653;SDS011;49809;47.418;19.080;2022-12-18T06:40:54;2.22;;;1.75;;
63653;SDS011;49809;47.418;19.080;2022-12-18T06:44:11;4.57;;;3.10;;
63653;SDS011;49809;47.418;19.080;2022-12-18T06:47:40;7.00;;;4.45;;
63653;SDS011;49809;47.418;19.080;2022-12-18T06:51:10;14.32;;;6.12;;
63653;SDS011;49809;47.418;19.080;2022-12-18T06:58:11;4.60;;;2.83;;
63653;SDS011;49809;47.418;19.080;2022-12-18T07:02:17;9.55;;;3.25;;
63653;SDS011;49809;47.418;19.080;2022-12-18T07:05:47;3.50;;;3.20;;
63653;SDS011;49809;47.418;19.080;2022-12-18T07:09:08;4.93;;;2.50;;
63653;SDS011;49809;47.418;19.080;2022-12-18T07:12:32;10.20;;;3.97;;
63653;SDS011;49809;47.418;19.080;2022-12-18T07:16:38;11.93;;;4.10;;
63653;SDS011;49809;47.418;19.080;2022-12-18T07:20:25;17.15;;;3.97;;
63653;SDS011;49809;47.418;19.080;2022-12-18T07:23:47;11.30;;;3.95;;
63653;SDS011;49809;47.418;19.080;2022-12-18T07:27:11;5.07;;;4.57;;
63653;SDS011;49809;47.418;19.080;2022-12-18T07:30:37;7.28;;;4.53;;
63653;SDS011;49809;47.418;19.080;2022-12-18T07:34:25;7.30;;;3.12;;
63653;SDS011;49809;47.418;19.080;2022-12-18T07:37:58;9.43;;;2.92;;
63653;SDS011;49809;47.418;19.080;2022-12-18T07:41:07;5.72;;;2.50;;
63653;SDS011;49809;47.418;19.080;2022-12-18T07:44:58;2.30;;;2.05;;
63653;SDS011;49809;47.418;19.080;2022-12-18T07:49:08;4.12;;;2.15;;
63653;SDS011;49809;47.418;19.080;2022-12-18T07:52:14;17.92;;;4.75;;
63653;SDS011;49809;47.418;19.080;2022-12-18T07:56:18;5.15;;;3.22;;
63653;SDS011;49809;47.418;19.080;2022-12-18T07:59:54;10.00;;;5.30;;
63653;SDS011;49809;47.418;19.080;2022-12-18T08:03:40;7.93;;;4.12;;
63653;SDS011;49809;47.418;19.080;2022-12-18T08:07:00;8.65;;;3.30;;
63653;SDS011;49809;47.418;19.080;2022-12-18T08:10:05;9.07;;;4.18;;
63653;SDS011;49809;47.418;19.080;2022-12-18T08:13:41;4.60;;;3.10;;
63653;SDS011;49809;47.418;19.080;2022-12-18T08:17:22;5.10;;;4.20;;
63653;SDS011;49809;47.418;19.080;2022-12-18T08:20:51;4.15;;;3.40;;
63653;SDS011;49809;47.418;19.080;2022-12-18T08:23:58;6.40;;;3.33;;
63653;SDS011;49809;47.418;19.080;2022-12-18T08:28:09;6.12;;;4.05;;
63653;SDS011;49809;47.418;19.080;2022-12-18T08:31:30;7.53;;;4.05;;
63653;SDS011;49809;47.418;19.080;2022-12-18T08:35:13;8.02;;;3.78;;
63653;SDS011;49809;47.418;19.080;2022-12-18T08:38:51;13.40;;;6.28;;
63653;SDS011;49809;47.418;19.080;2022-12-18T08:42:12;9.55;;;4.82;;
63653;SDS011;49809;47.418;19.080;2022-12-18T08:45:58;5.12;;;4.32;;
63653;SDS011;49809;47.418;19.080;2022-12-18T08:49:03;8.88;;;4.75;;
63653;SDS011;49809;47.418;19.080;2022-12-18T08:52:35;3.75;;;3.08;;
63653;SDS011;49809;47.418;19.080;2022-12-18T08:56:08;10.48;;;4.95;;
63653;SDS011;49809;47.418;19.080;2022-12-18T08:59:26;19.05;;;6.57;;
63653;SDS011;49809;47.418;19.080;2022-12-18T09:03:17;7.18;;;3.10;;
63653;SDS011;49809;47.418;19.080;2022-12-18T09:06:43;9.88;;;4.53;;
63653;SDS011;49809;47.418;19.080;2022-12-18T09:10:22;19.75;;;4.53;;
63653;SDS011;49809;47.418;19.080;2022-12-18T09:13:46;9.57;;;5.00;;
63653;SDS011;49809;47.418;19.080;2022-12-18T09:17:41;12.93;;;5.72;;
63653;SDS011;49809;47.418;19.080;2022-12-18T09:21:09;10.05;;;5.22;;
63653;SDS011;49809;47.418;19.080;2022-12-18T09:24:29;11.20;;;7.72;;
63653;SDS011;49809;47.418;19.080;2022-12-18T09:27:33;11.48;;;5.35;;
63653;SDS011;49809;47.418;19.080;2022-12-18T09:31:03;26.15;;;6.47;;
63653;SDS011;49809;47.418;19.080;2022-12-18T09:34:30;9.18;;;4.78;;
63653;SDS011;49809;47.418;19.080;2022-12-18T09:37:53;13.75;;;6.32;;
63653;SDS011;49809;47.418;19.080;2022-12-18T09:45:01;11.65;;;5.15;;
63653;SDS011;49809;47.418;19.080;2022-12-18T09:48:35;9.65;;;5.47;;
63653;SDS011;49809;47.418;19.080;2022-12-18T09:52:27;11.90;;;4.72;;
63653;SDS011;49809;47.418;19.080;2022-12-18T09:59:23;8.45;;;5.90;;
63653;SDS011;49809;47.418;19.080;2022-12-18T10:03:33;9.57;;;5.50;;
63653;SDS011;49809;47.418;19.080;2022-12-18T10:10:34;15.73;;;7.03;;
63653;SDS011;49809;47.418;19.080;2022-12-18T10:17:56;17.15;;;6.65;;
63653;SDS011;49809;47.418;19.080;2022-12-18T10:24:53;14.45;;;7.60;;
63653;SDS011;49809;47.418;19.080;2022-12-18T10:28:07;15.38;;;6.68;;
63653;SDS011;49809;47.418;19.080;2022-12-18T10:31:22;15.88;;;7.12;;
63653;SDS011;49809;47.418;19.080;2022-12-18T10:34:26;16.58;;;7.45;;
63653;SDS011;49809;47.418;19.080;2022-12-18T10:37:33;17.58;;;6.87;;
63653;SDS011;49809;47.418;19.080;2022-12-18T10:40:57;14.13;;;6.35;;
63653;SDS011;49809;47.418;19.080;2022-12-18T10:44:35;14.63;;;7.85;;
63653;SDS011;49809;47.418;19.080;2022-12-18T10:47:46;8.70;;;4.90;;
63653;SDS011;49809;47.418;19.080;2022-12-18T10:51:19;16.05;;;8.35;;
63653;SDS011;49809;47.418;19.080;2022-12-18T10:54:50;33.17;;;8.02;;
63653;SDS011;49809;47.418;19.080;2022-12-18T11:09:20;14.25;;;7.50;;
63653;SDS011;49809;47.418;19.080;2022-12-18T11:12:25;14.80;;;7.43;;
63653;SDS011;49809;47.418;19.080;2022-12-18T11:15:31;16.83;;;8.48;;
63653;SDS011;49809;47.418;19.080;2022-12-18T11:18:37;17.27;;;7.40;;
63653;SDS011;49809;47.418;19.080;2022-12-18T11:21:55;17.33;;;8.65;;
63653;SDS011;49809;47.418;19.080;2022-12-18T11:25:00;22.50;;;8.65;;
63653;SDS011;49809;47.418;19.080;2022-12-18T11:28:36;21.02;;;11.15;;
63653;SDS011;49809;47.418;19.080;2022-12-18T11:31:41;24.63;;;10.90;;
63653;SDS011;49809;47.418;19.080;2022-12-18T11:34:46;26.95;;;11.57;;
63653;SDS011;49809;47.418;19.080;2022-12-18T11:38:05;23.80;;;10.15;;
63653;SDS011;49809;47.418;19.080;2022-12-18T11:41:47;27.08;;;11.35;;
63653;SDS011;49809;47.418;19.080;2022-12-18T11:48:32;34.55;;;14.15;;
63653;SDS011;49809;47.418;19.080;2022-12-18T11:52:27;25.80;;;10.73;;
63653;SDS011;49809;47.418;19.080;2022-12-18T11:55:43;28.40;;;12.07;;
63653;SDS011;49809;47.418;19.080;2022-12-18T12:05:47;18.05;;;8.50;;
63653;SDS011;49809;47.418;19.080;2022-12-18T12:12:37;21.35;;;9.48;;
63653;SDS011;49809;47.418;19.080;2022-12-18T12:19:59;22.15;;;9.95;;
63653;SDS011;49809;47.418;19.080;2022-12-18T12:38:30;16.12;;;7.05;;
63653;SDS011;49809;47.418;19.080;2022-12-18T12:43:16;15.55;;;8.30;;
63653;SDS011;49809;47.418;19.080;2022-12-18T12:46:31;21.42;;;8.60;;
63653;SDS011;49809;47.418;19.080;2022-12-18T12:50:12;14.55;;;7.90;;
63653;SDS011;49809;47.418;19.080;2022-12-18T12:53:46;22.62;;;9.23;;
63653;SDS011;49809;47.418;19.080;2022-12-18T13:06:00;19.58;;;7.68;;
63653;SDS011;49809;47.418;19.080;2022-12-18T13:13:56;17.75;;;8.10;;
63653;SDS011;49809;47.418;19.080;2022-12-18T13:17:35;12.93;;;6.78;;
63653;SDS011;49809;47.418;19.080;2022-12-18T13:21:21;14.57;;;7.45;;
63653;SDS011;49809;47.418;19.080;2022-12-18T13:29:09;8.27;;;3.53;;
63653;SDS011;49809;47.418;19.080;2022-12-18T13:32:41;14.68;;;5.72;;
63653;SDS011;49809;47.418;19.080;2022-12-18T13:44:11;21.20;;;7.30;;
63653;SDS011;49809;47.418;19.080;2022-12-18T13:48:23;22.80;;;9.38;;
63653;SDS011;49809;47.418;19.080;2022-12-18T13:52:03;20.88;;;8.27;;
63653;SDS011;49809;47.418;19.080;2022-12-18T13:55:38;19.17;;;9.27;;
63653;SDS011;49809;47.418;19.080;2022-12-18T13:59:12;24.98;;;10.02;;
63653;SDS011;49809;47.418;19.080;2022-12-18T14:02:36;19.73;;;10.00;;
63653;SDS011;49809;47.418;19.080;2022-12-18T14:06:38;25.80;;;10.27;;
63653;SDS011;49809;47.418;19.080;2022-12-18T14:10:13;22.65;;;11.95;;
63653;SDS011;49809;47.418;19.080;2022-12-18T14:13:37;13.85;;;7.82;;
63653;SDS011;49809;47.418;19.080;2022-12-18T14:16:58;20.77;;;8.98;;
63653;SDS011;49809;47.418;19.080;2022-12-18T14:20:34;21.15;;;10.70;;
63653;SDS011;49809;47.418;19.080;2022-12-18T14:24:05;18.15;;;9.32;;
63653;SDS011;49809;47.418;19.080;2022-12-18T14:31:36;25.05;;;10.98;;
63653;SDS011;49809;47.418;19.080;2022-12-18T14:35:12;23.12;;;10.38;;
63653;SDS011;49809;47.418;19.080;2022-12-18T14:38:53;19.67;;;11.05;;
63653;SDS011;49809;47.418;19.080;2022-12-18T14:42:21;14.87;;;8.20;;
63653;SDS011;49809;47.418;19.080;2022-12-18T15:00:06;16.70;;;8.27;;
63653;SDS011;49809;47.418;19.080;2022-12-18T15:03:35;25.25;;;7.53;;
63653;SDS011;49809;47.418;19.080;2022-12-18T15:07:22;9.07;;;5.82;;
63653;SDS011;49809;47.418;19.080;2022-12-18T15:10:59;14.50;;;6.82;;
63653;SDS011;49809;47.418;19.080;2022-12-18T15:14:40;18.17;;;6.25;;
63653;SDS011;49809;47.418;19.080;2022-12-18T15:18:16;14.25;;;7.40;;
63653;SDS011;49809;47.418;19.080;2022-12-18T15:21:54;13.43;;;8.05;;
63653;SDS011;49809;47.418;19.080;2022-12-18T15:25:32;13.00;;;5.07;;
63653;SDS011;49809;47.418;19.080;2022-12-18T15:28:56;12.70;;;7.85;;
63653;SDS011;49809;47.418;19.080;2022-12-18T15:32:27;13.73;;;6.75;;
63653;SDS011;49809;47.418;19.080;2022-12-18T15:36:04;15.73;;;7.75;;
63653;SDS011;49809;47.418;19.080;2022-12-18T15:39:41;23.20;;;7.70;;
63653;SDS011;49809;47.418;19.080;2022-12-18T15:43:04;19.37;;;6.97;;
63653;SDS011;49809;47.418;19.080;2022-12-18T15:50:44;16.67;;;7.18;;
63653;SDS011;49809;47.418;19.080;2022-12-18T15:54:29;13.30;;;7.07;;
63653;SDS011;49809;47.418;19.080;2022-12-18T15:58:36;10.73;;;7.28;;
63653;SDS011;49809;47.418;19.080;2022-12-18T16:02:13;16.95;;;7.43;;
63653;SDS011;49809;47.418;19.080;2022-12-18T16:06:00;19.73;;;7.25;;
63653;SDS011;49809;47.418;19.080;2022-12-18T16:09:40;8.98;;;6.95;;
63653;SDS011;49809;47.418;19.080;2022-12-18T16:13:16;16.55;;;8.70;;
63653;SDS011;49809;47.418;19.080;2022-12-18T16:21:01;16.60;;;8.23;;
63653;SDS011;49809;47.418;19.080;2022-12-18T16:24:37;16.25;;;8.82;;
63653;SDS011;49809;47.418;19.080;2022-12-18T16:28:11;17.02;;;8.65;;
63653;SDS011;49809;47.418;19.080;2022-12-18T16:31:59;23.87;;;8.93;;
63653;SDS011;49809;47.418;19.080;2022-12-18T16:35:29;22.33;;;11.20;;
63653;SDS011;49809;47.418;19.080;2022-12-18T16:38:54;22.95;;;7.70;;
63653;SDS011;49809;47.418;19.080;2022-12-18T16:42:33;12.50;;;8.23;;
63653;SDS011;49809;47.418;19.080;2022-12-18T16:45:57;16.33;;;9.18;;
63653;SDS011;49809;47.418;19.080;2022-12-18T16:49:02;13.23;;;7.78;;
63653;SDS011;49809;47.418;19.080;2022-12-18T16:52:37;18.08;;;9.10;;
63653;SDS011;49809;47.418;19.080;2022-12-18T16:56:12;37.00;;;10.18;;
63653;SDS011;49809;47.418;19.080;2022-12-18T16:59:34;30.60;;;10.35;;
63653;SDS011;49809;47.418;19.080;2022-12-18T17:03:09;22.25;;;9.90;;
63653;SDS011;49809;47.418;19.080;2022-12-18T17:06:45;12.73;;;8.70;;
63653;SDS011;49809;47.418;19.080;2022-12-18T17:10:15;21.17;;;10.00;;
63653;SDS011;49809;47.418;19.080;2022-12-18T17:13:54;20.95;;;8.77;;
63653;SDS011;49809;47.418;19.080;2022-12-18T17:17:25;18.10;;;8.50;;
63653;SDS011;49809;47.418;19.080;2022-12-18T17:20:43;21.67;;;9.90;;
63653;SDS011;49809;47.418;19.080;2022-12-18T17:24:18;15.60;;;9.63;;
63653;SDS011;49809;47.418;19.080;2022-12-18T17:27:49;10.23;;;7.43;;
63653;SDS011;49809;47.418;19.080;2022-12-18T17:31:36;13.65;;;7.65;;
63653;SDS011;49809;47.418;19.080;2022-12-18T17:35:04;15.98;;;9.63;;
63653;SDS011;49809;47.418;19.080;2022-12-18T17:39:02;20.88;;;11.02;;
63653;SDS011;49809;47.418;19.080;2022-12-18T17:46:28;20.90;;;9.65;;
63653;SDS011;49809;47.418;19.080;2022-12-18T17:50:11;24.35;;;11.60;;
63653;SDS011;49809;47.418;19.080;2022-12-18T17:53:49;15.82;;;9.18;;
63653;SDS011;49809;47.418;19.080;2022-12-18T17:57:40;21.98;;;11.10;;
63653;SDS011;49809;47.418;19.080;2022-12-18T18:06:29;24.30;;;10.77;;
63653;SDS011;49809;47.418;19.080;2022-12-18T18:13:36;18.27;;;11.38;;
63653;SDS011;49809;47.418;19.080;2022-12-18T18:18:06;27.92;;;12.48;;
63653;SDS011;49809;47.418;19.080;2022-12-18T18:21:47;33.03;;;15.60;;
63653;SDS011;49809;47.418;19.080;2022-12-18T18:36:24;22.80;;;10.57;;
63653;SDS011;49809;47.418;19.080;2022-12-18T18:40:19;32.45;;;14.00;;
63653;SDS011;49809;47.418;19.080;2022-12-18T18:44:54;19.33;;;10.38;;
63653;SDS011;49809;47.418;19.080;2022-12-18T18:48:51;20.45;;;13.50;;
63653;SDS011;49809;47.418;19.080;2022-12-18T18:52:21;24.67;;;11.93;;
63653;SDS011;49809;47.418;19.080;2022-12-18T19:03:26;23.20;;;10.10;;
63653;SDS011;49809;47.418;19.080;2022-12-18T19:06:57;24.17;;;11.30;;
63653;SDS011;49809;47.418;19.080;2022-12-18T19:10:20;24.75;;;12.25;;
63653;SDS011;49809;47.418;19.080;2022-12-18T19:14:02;15.23;;;10.38;;
63653;SDS011;49809;47.418;19.080;2022-12-18T19:17:43;13.55;;;9.77;;
63653;SDS011;49809;47.418;19.080;2022-12-18T19:21:32;16.98;;;11.32;;
63653;SDS011;49809;47.418;19.080;2022-12-18T19:25:07;17.40;;;11.45;;
63653;SDS011;49809;47.418;19.080;2022-12-18T19:28:31;17.00;;;11.05;;
63653;SDS011;49809;47.418;19.080;2022-12-18T19:31:55;36.90;;;13.55;;
63653;SDS011;49809;47.418;19.080;2022-12-18T19:35:23;29.48;;;12.77;;
63653;SDS011;49809;47.418;19.080;2022-12-18T19:39:06;21.80;;;13.50;;
63653;SDS011;49809;47.418;19.080;2022-12-18T19:42:32;25.25;;;11.95;;
63653;SDS011;49809;47.418;19.080;2022-12-18T19:46:13;29.48;;;14.35;;
63653;SDS011;49809;47.418;19.080;2022-12-18T19:49:51;15.02;;;12.30;;
63653;SDS011;49809;47.418;19.080;2022-12-18T19:53:29;23.10;;;13.13;;
63653;SDS011;49809;47.418;19.080;2022-12-18T19:56:47;47.97;;;16.48;;
63653;SDS011;49809;47.418;19.080;2022-12-18T20:00:26;24.50;;;12.68;;
63653;SDS011;49809;47.418;19.080;2022-12-18T20:04:06;32.53;;;13.13;;
63653;SDS011;49809;47.418;19.080;2022-12-18T20:07:35;22.73;;;11.30;;
63653;SDS011;49809;47.418;19.080;2022-12-18T20:11:16;24.08;;;14.32;;
63653;SDS011;49809;47.418;19.080;2022-12-18T20:15:00;25.85;;;14.30;;
63653;SDS011;49809;47.418;19.080;2022-12-18T20:18:30;20.17;;;12.00;;
63653;SDS011;49809;47.418;19.080;2022-12-18T20:22:09;35.38;;;11.00;;
63653;SDS011;49809;47.418;19.080;2022-12-18T20:25:59;30.75;;;14.52;;
63653;SDS011;49809;47.418;19.080;2022-12-18T20:29:36;20.42;;;13.68;;
63653;SDS011;49809;47.418;19.080;2022-12-18T20:36:48;23.90;;;10.70;;
63653;SDS011;49809;47.418;19.080;2022-12-18T20:40:25;34.13;;;13.23;;
63653;SDS011;49809;47.418;19.080;2022-12-18T20:44:05;37.25;;;14.80;;
63653;SDS011;49809;47.418;19.080;2022-12-18T20:47:35;28.42;;;14.35;;
63653;SDS011;49809;47.418;19.080;2022-12-18T20:51:04;16.27;;;11.50;;
63653;SDS011;49809;47.418;19.080;2022-12-18T20:54:46;28.85;;;12.57;;
63653;SDS011;49809;47.418;19.080;2022-12-18T20:58:24;27.42;;;13.20;;
63653;SDS011;49809;47.418;19.080;2022-12-18T21:02:01;13.68;;;9.52;;
63653;SDS011;49809;47.418;19.080;2022-12-18T21:05:38;23.02;;;10.73;;
63653;SDS011;49809;47.418;19.080;2022-12-18T21:08:58;20.67;;;11.48;;
63653;SDS011;49809;47.418;19.080;2022-12-18T21:12:32;24.92;;;13.93;;
63653;SDS011;49809;47.418;19.080;2022-12-18T21:16:09;30.75;;;12.70;;
63653;SDS011;49809;47.418;19.080;2022-12-18T21:19:43;30.65;;;12.90;;
63653;SDS011;49809;47.418;19.080;2022-12-18T21:23:18;20.65;;;13.57;;
63653;SDS011;49809;47.418;19.080;2022-12-18T21:26:54;14.95;;;9.52;;
63653;SDS011;49809;47.418;19.080;2022-12-18T21:30:26;22.15;;;10.85;;
63653;SDS011;49809;47.418;19.080;2022-12-18T21:34:01;19.25;;;10.20;;
63653;SDS011;49809;47.418;19.080;2022-12-18T21:37:22;21.77;;;10.20;;
63653;SDS011;49809;47.418;19.080;2022-12-18T21:40:49;23.50;;;12.75;;
63653;SDS011;49809;47.418;19.080;2022-12-18T21:44:23;24.02;;;12.40;;
63653;SDS011;49809;47.418;19.080;2022-12-18T21:47:57;18.17;;;11.07;;
63653;SDS011;49809;47.418;19.080;2022-12-18T21:51:27;15.20;;;10.02;;
63653;SDS011;49809;47.418;19.080;2022-12-18T21:54:56;15.38;;;10.02;;
63653;SDS011;49809;47.418;19.080;2022-12-18T21:58:28;20.70;;;11.30;;
63653;SDS011;49809;47.418;19.080;2022-12-18T22:01:57;16.02;;;9.50;;
63653;SDS011;49809;47.418;19.080;2022-12-18T22:05:26;23.80;;;9.07;;
63653;SDS011;49809;47.418;19.080;2022-12-18T22:09:12;13.98;;;9.65;;
63653;SDS011;49809;47.418;19.080;2022-12-18T22:12:19;12.20;;;9.20;;
63653;SDS011;49809;47.418;19.080;2022-12-18T22:16:13;17.00;;;9.98;;
63653;SDS011;49809;47.418;19.080;2022-12-18T22:23:42;19.17;;;10.27;;
63653;SDS011;49809;47.418;19.080;2022-12-18T22:27:17;11.63;;;7.25;;
63653;SDS011;49809;47.418;19.080;2022-12-18T22:30:51;13.65;;;5.97;;
63653;SDS011;49809;47.418;19.080;2022-12-18T22:34:33;14.52;;;9.40;;
63653;SDS011;49809;47.418;19.080;2022-12-18T22:38:09;10.55;;;7.00;;
63653;SDS011;49809;47.418;19.080;2022-12-18T22:41:51;8.02;;;7.22;;
63653;SDS011;49809;47.418;19.080;2022-12-18T22:45:19;9.57;;;7.57;;
63653;SDS011;49809;47.418;19.080;2022-12-18T22:48:47;13.60;;;6.80;;
63653;SDS011;49809;47.418;19.080;2022-12-18T22:51:53;15.90;;;9.57;;
63653;SDS011;49809;47.418;19.080;2022-12-18T22:55:26;12.43;;;6.95;;
63653;SDS011;49809;47.418;19.080;2022-12-18T22:58:39;5.35;;;4.70;;
63653;SDS011;49809;47.418;19.080;2022-12-18T23:02:33;16.15;;;7.57;;
63653;SDS011;49809;47.418;19.080;2022-12-18T23:06:02;15.48;;;6.87;;
63653;SDS011;49809;47.418;19.080;2022-12-18T23:09:33;25.62;;;5.62;;
63653;SDS011;49809;47.418;19.080;2022-12-18T23:12:58;14.45;;;5.18;;
63653;SDS011;49809;47.418;19.080;2022-12-18T23:16:19;10.35;;;5.37;;
63653;SDS011;49809;47.418;19.080;2022-12-18T23:20:07;11.60;;;6.63;;
63653;SDS011;49809;47.418;19.080;2022-12-18T23:23:52;5.75;;;5.10;;
63653;SDS011;49809;47.418;19.080;2022-12-18T23:27:32;14.30;;;6.25;;
63653;SDS011;49809;47.418;19.080;2022-12-18T23:31:14;8.73;;;5.50;;
63653;SDS011;49809;47.418;19.080;2022-12-18T23:34:33;5.03;;;4.32;;
63653;SDS011;49809;47.418;19.080;2022-12-18T23:38:31;9.63;;;4.82;;
63653;SDS011;49809;47.418;19.080;2022-12-18T23:42:29;8.60;;;4.45;;
63653;SDS011;49809;47.418;19.080;2022-12-18T23:45:56;11.35;;;5.12;;
63653;SDS011;49809;47.418;19.080;2022-12-18T23:49:24;6.05;;;4.37;;
63653;SDS011;49809;47.418;19.080;2022-12-18T23:52:42;19.37;;;5.85;;
63653;SDS011;49809;47.418;19.080;2022-12-18T23:56:04;13.68;;;8.65;;